sensor_id;sensor_type;location;lat;lon;timestamp;pressure;altitude;pressure_sealevel;temperature;humidity
64095;BME280;50353;51.420;5.682;2024-03-08T00:01:47;101521.91;;;3.76;100.00
64095;BME280;50353;51.420;5.682;2024-03-08T00:04:13;101513.03;;;3.83;100.00
64095;BME280;50353;51.420;5.682;2024-03-08T00:06:40;101512.81;;;3.51;100.00
64095;BME280;50353;51.420;5.682;2024-03-08T00:09:05;101510.13;;;3.56;100.00
64095;BME280;50353;51.420;5.682;2024-03-08T00:11:33;101507.81;;;3.41;100.00
64095;BME280;50353;51.420;5.682;2024-03-08T00:14:00;101505.03;;;3.48;100.00
64095;BME280;50353;51.420;5.682;2024-03-08T00:16:25;101505.81;;;3.53;100.00
64095;BME280;50353;51.420;5.682;2024-03-08T00:18:51;101509.13;;;3.62;100.00
64095;BME280;50353;51.420;5.682;2024-03-08T00:21:16;101503.97;;;3.59;100.00
64095;BME280;50353;51.420;5.682;2024-03-08T00:23:41;101507.25;;;3.68;100.00
64095;BME280;50353;51.420;5.682;2024-03-08T00:26:07;101505.63;;;3.61;100.00
64095;BME280;50353;51.420;5.682;2024-03-08T00:28:32;101496.56;;;3.37;100.00
64095;BME280;50353;51.420;5.682;2024-03-08T00:30:59;101503.31;;;3.47;100.00
64095;BME280;50353;51.420;5.682;2024-03-08T00:33:27;101493.28;;;3.26;100.00
64095;BME280;50353;51.420;5.682;2024-03-08T00:35:56;101493.84;;;3.42;100.00
64095;BME280;50353;51.420;5.682;2024-03-08T00:38:21;101498.38;;;3.33;100.00
64095;BME280;50353;51.420;5.682;2024-03-08T00:40:46;101492.28;;;3.33;100.00
64095;BME280;50353;51.420;5.682;2024-03-08T00:43:12;101484.75;;;3.16;100.00
64095;BME280;50353;51.420;5.682;2024-03-08T00:45:38;101488.97;;;3.23;100.00
64095;BME280;50353;51.420;5.682;2024-03-08T00:48:04;101488.75;;;3.35;100.00
64095;BME280;50353;51.420;5.682;2024-03-08T00:50:31;101477.75;;;3.19;100.00
64095;BME280;50353;51.420;5.682;2024-03-08T00:52:56;101472.72;;;3.09;100.00
64095;BME280;50353;51.420;5.682;2024-03-08T00:55:21;101467.13;;;3.27;100.00
64095;BME280;50353;51.420;5.682;2024-03-08T00:57:47;101467.72;;;3.42;100.00
64095;BME280;50353;51.420;5.682;2024-03-08T01:00:12;101466.31;;;3.25;100.00
64095;BME280;50353;51.420;5.682;2024-03-08T01:02:39;101461.97;;;3.24;100.00
64095;BME280;50353;51.420;5.682;2024-03-08T01:05:05;101454.47;;;3.07;100.00
64095;BME280;50353;51.420;5.682;2024-03-08T01:07:34;101461.28;;;3.14;100.00
64095;BME280;50353;51.420;5.682;2024-03-08T01:10:00;101452.38;;;3.23;100.00
64095;BME280;50353;51.420;5.682;2024-03-08T01:12:26;101447.16;;;3.23;100.00
64095;BME280;50353;51.420;5.682;2024-03-08T01:14:51;101445.75;;;3.08;100.00
64095;BME280;50353;51.420;5.682;2024-03-08T01:17:18;101445.06;;;2.97;100.00
64095;BME280;50353;51.420;5.682;2024-03-08T01:19:43;101445.97;;;2.94;100.00
64095;BME280;50353;51.420;5.682;2024-03-08T01:22:10;101439.72;;;3.04;100.00
64095;BME280;50353;51.420;5.682;2024-03-08T01:24:36;101441.47;;;3.02;100.00
64095;BME280;50353;51.420;5.682;2024-03-08T01:27:02;101443.38;;;2.94;100.00
64095;BME280;50353;51.420;5.682;2024-03-08T01:29:28;101437.50;;;2.83;100.00
64095;BME280;50353;51.420;5.682;2024-03-08T01:31:55;101431.22;;;2.93;100.00
64095;BME280;50353;51.420;5.682;2024-03-08T01:34:22;101435.53;;;2.94;100.00
64095;BME280;50353;51.420;5.682;2024-03-08T01:36:48;101434.34;;;3.12;100.00
64095;BME280;50353;51.420;5.682;2024-03-08T01:39:14;101441.72;;;2.90;100.00
64095;BME280;50353;51.420;5.682;2024-03-08T01:41:39;101436.44;;;2.93;100.00
64095;BME280;50353;51.420;5.682;2024-03-08T01:44:05;101429.56;;;2.89;100.00
64095;BME280;50353;51.420;5.682;2024-03-08T01:46:34;101425.25;;;2.85;100.00
64095;BME280;50353;51.420;5.682;2024-03-08T01:49:00;101420.78;;;2.93;100.00
64095;BME280;50353;51.420;5.682;2024-03-08T01:51:27;101418.38;;;2.82;100.00
64095;BME280;50353;51.420;5.682;2024-03-08T01:53:55;101414.59;;;2.96;100.00
64095;BME280;50353;51.420;5.682;2024-03-08T01:56:21;101407.72;;;2.92;100.00
64095;BME280;50353;51.420;5.682;2024-03-08T01:58:46;101412.31;;;2.80;100.00
64095;BME280;50353;51.420;5.682;2024-03-08T02:01:12;101405.75;;;2.59;100.00
64095;BME280;50353;51.420;5.682;2024-03-08T02:03:42;101407.34;;;2.66;100.00
64095;BME280;50353;51.420;5.682;2024-03-08T02:06:11;101409.19;;;2.60;100.00
64095;BME280;50353;51.420;5.682;2024-03-08T02:08:37;101407.72;;;2.45;100.00
64095;BME280;50353;51.420;5.682;2024-03-08T02:11:04;101398.66;;;2.64;100.00
64095;BME280;50353;51.420;5.682;2024-03-08T02:13:29;101400.56;;;2.56;100.00
64095;BME280;50353;51.420;5.682;2024-03-08T02:15:56;101402.97;;;2.67;100.00
64095;BME280;50353;51.420;5.682;2024-03-08T02:18:23;101398.94;;;2.49;100.00
64095;BME280;50353;51.420;5.682;2024-03-08T02:20:52;101398.88;;;2.52;100.00
64095;BME280;50353;51.420;5.682;2024-03-08T02:23:21;101390.19;;;2.53;100.00
64095;BME280;50353;51.420;5.682;2024-03-08T02:25:48;101384.97;;;2.53;100.00
64095;BME280;50353;51.420;5.682;2024-03-08T02:28:14;101378.72;;;2.60;100.00
64095;BME280;50353;51.420;5.682;2024-03-08T02:30:41;101387.00;;;2.35;100.00
64095;BME280;50353;51.420;5.682;2024-03-08T02:33:07;101380.16;;;2.28;100.00
64095;BME280;50353;51.420;5.682;2024-03-08T02:35:35;101374.91;;;2.31;100.00
64095;BME280;50353;51.420;5.682;2024-03-08T02:38:01;101368.50;;;2.48;100.00
64095;BME280;50353;51.420;5.682;2024-03-08T02:40:26;101364.94;;;2.53;100.00
64095;BME280;50353;51.420;5.682;2024-03-08T02:42:52;101371.13;;;2.48;100.00
64095;BME280;50353;51.420;5.682;2024-03-08T02:45:18;101365.47;;;2.24;100.00
64095;BME280;50353;51.420;5.682;2024-03-08T02:47:43;101362.91;;;2.19;100.00
64095;BME280;50353;51.420;5.682;2024-03-08T02:50:09;101355.97;;;2.20;100.00
64095;BME280;50353;51.420;5.682;2024-03-08T02:52:34;101359.19;;;2.34;100.00
64095;BME280;50353;51.420;5.682;2024-03-08T02:55:01;101352.09;;;2.43;100.00
64095;BME280;50353;51.420;5.682;2024-03-08T02:57:26;101353.78;;;2.47;100.00
64095;BME280;50353;51.420;5.682;2024-03-08T02:59:53;101343.84;;;2.17;100.00
64095;BME280;50353;51.420;5.682;2024-03-08T03:02:19;101350.72;;;2.22;100.00
64095;BME280;50353;51.420;5.682;2024-03-08T03:04:44;101344.81;;;2.12;100.00
64095;BME280;50353;51.420;5.682;2024-03-08T03:07:09;101340.66;;;2.00;100.00
64095;BME280;50353;51.420;5.682;2024-03-08T03:09:36;101338.84;;;2.05;100.00
64095;BME280;50353;51.420;5.682;2024-03-08T03:12:01;101337.28;;;1.93;100.00
64095;BME280;50353;51.420;5.682;2024-03-08T03:14:27;101336.28;;;2.02;100.00
64095;BME280;50353;51.420;5.682;2024-03-08T03:16:53;101333.53;;;2.10;100.00
64095;BME280;50353;51.420;5.682;2024-03-08T03:19:20;101338.25;;;1.88;100.00
64095;BME280;50353;51.420;5.682;2024-03-08T03:21:45;101329.34;;;2.01;100.00
64095;BME280;50353;51.420;5.682;2024-03-08T03:24:11;101335.13;;;2.18;100.00
64095;BME280;50353;51.420;5.682;2024-03-08T03:26:40;101320.38;;;2.17;100.00
64095;BME280;50353;51.420;5.682;2024-03-08T03:29:07;101319.81;;;1.98;100.00
64095;BME280;50353;51.420;5.682;2024-03-08T03:31:34;101325.03;;;1.98;100.00
64095;BME280;50353;51.420;5.682;2024-03-08T03:34:01;101322.47;;;1.95;100.00
64095;BME280;50353;51.420;5.682;2024-03-08T03:36:29;101314.69;;;1.92;100.00
64095;BME280;50353;51.420;5.682;2024-03-08T03:38:55;101318.59;;;2.18;100.00
64095;BME280;50353;51.420;5.682;2024-03-08T03:41:36;101312.94;;;1.94;100.00
64095;BME280;50353;51.420;5.682;2024-03-08T03:44:02;101303.56;;;1.82;100.00
64095;BME280;50353;51.420;5.682;2024-03-08T03:46:27;101313.72;;;1.99;100.00
64095;BME280;50353;51.420;5.682;2024-03-08T03:48:54;101304.25;;;1.92;100.00
64095;BME280;50353;51.420;5.682;2024-03-08T03:51:20;101304.38;;;1.86;100.00
64095;BME280;50353;51.420;5.682;2024-03-08T03:53:46;101298.88;;;2.03;100.00
64095;BME280;50353;51.420;5.682;2024-03-08T03:56:12;101302.28;;;2.07;100.00
64095;BME280;50353;51.420;5.682;2024-03-08T03:58:37;101302.38;;;2.02;100.00
64095;BME280;50353;51.420;5.682;2024-03-08T04:01:04;101300.78;;;1.93;100.00
64095;BME280;50353;51.420;5.682;2024-03-08T04:03:30;101295.78;;;1.81;100.00
64095;BME280;50353;51.420;5.682;2024-03-08T04:05:55;101292.41;;;1.74;100.00
64095;BME280;50353;51.420;5.682;2024-03-08T04:08:20;101292.34;;;1.79;100.00
64095;BME280;50353;51.420;5.682;2024-03-08T04:10:46;101287.88;;;1.84;100.00
64095;BME280;50353;51.420;5.682;2024-03-08T04:13:11;101285.91;;;1.98;100.00
64095;BME280;50353;51.420;5.682;2024-03-08T04:15:37;101289.38;;;2.00;100.00
64095;BME280;50353;51.420;5.682;2024-03-08T04:18:03;101287.78;;;1.92;100.00
64095;BME280;50353;51.420;5.682;2024-03-08T04:20:29;101286.28;;;1.77;100.00
64095;BME280;50353;51.420;5.682;2024-03-08T04:22:55;101289.97;;;1.63;100.00
64095;BME280;50353;51.420;5.682;2024-03-08T04:25:21;101285.13;;;1.93;100.00
64095;BME280;50353;51.420;5.682;2024-03-08T04:27:47;101280.94;;;1.84;100.00
64095;BME280;50353;51.420;5.682;2024-03-08T04:30:14;101280.16;;;1.79;100.00
64095;BME280;50353;51.420;5.682;2024-03-08T04:32:39;101280.09;;;1.82;100.00
64095;BME280;50353;51.420;5.682;2024-03-08T04:35:06;101278.53;;;1.74;100.00
64095;BME280;50353;51.420;5.682;2024-03-08T04:37:33;101284.00;;;1.55;100.00
64095;BME280;50353;51.420;5.682;2024-03-08T04:39:59;101288.00;;;1.78;100.00
64095;BME280;50353;51.420;5.682;2024-03-08T04:42:26;101275.16;;;1.67;100.00
64095;BME280;50353;51.420;5.682;2024-03-08T04:44:52;101274.94;;;1.79;100.00
64095;BME280;50353;51.420;5.682;2024-03-08T04:47:19;101279.63;;;1.59;100.00
64095;BME280;50353;51.420;5.682;2024-03-08T04:49:44;101279.50;;;1.66;100.00
64095;BME280;50353;51.420;5.682;2024-03-08T04:52:09;101271.47;;;1.80;100.00
64095;BME280;50353;51.420;5.682;2024-03-08T04:54:35;101266.22;;;1.82;100.00
64095;BME280;50353;51.420;5.682;2024-03-08T04:57:00;101270.78;;;1.67;100.00
64095;BME280;50353;51.420;5.682;2024-03-08T04:59:26;101272.88;;;1.45;100.00
64095;BME280;50353;51.420;5.682;2024-03-08T05:01:52;101271.91;;;1.51;100.00
64095;BME280;50353;51.420;5.682;2024-03-08T05:04:19;101265.91;;;1.46;100.00
64095;BME280;50353;51.420;5.682;2024-03-08T05:06:44;101254.09;;;1.25;100.00
64095;BME280;50353;51.420;5.682;2024-03-08T05:09:10;101264.44;;;1.29;100.00
64095;BME280;50353;51.420;5.682;2024-03-08T05:11:42;101254.41;;;1.62;100.00
64095;BME280;50353;51.420;5.682;2024-03-08T05:14:10;101254.94;;;1.25;100.00
64095;BME280;50353;51.420;5.682;2024-03-08T05:16:35;101251.16;;;1.46;100.00
64095;BME280;50353;51.420;5.682;2024-03-08T05:19:01;101252.75;;;1.55;100.00
64095;BME280;50353;51.420;5.682;2024-03-08T05:21:27;101254.47;;;1.56;100.00
64095;BME280;50353;51.420;5.682;2024-03-08T05:23:54;101250.44;;;1.38;100.00
64095;BME280;50353;51.420;5.682;2024-03-08T05:26:19;101254.91;;;1.27;100.00
64095;BME280;50353;51.420;5.682;2024-03-08T05:28:45;101255.69;;;1.35;100.00
64095;BME280;50353;51.420;5.682;2024-03-08T05:31:21;101247.53;;;1.55;100.00
64095;BME280;50353;51.420;5.682;2024-03-08T05:33:49;101250.41;;;1.40;100.00
64095;BME280;50353;51.420;5.682;2024-03-08T05:36:15;101251.38;;;1.31;100.00
64095;BME280;50353;51.420;5.682;2024-03-08T05:38:44;101246.84;;;1.44;100.00
64095;BME280;50353;51.420;5.682;2024-03-08T05:41:10;101248.81;;;1.29;100.00
64095;BME280;50353;51.420;5.682;2024-03-08T05:43:37;101248.63;;;1.40;100.00
64095;BME280;50353;51.420;5.682;2024-03-08T05:46:02;101249.09;;;1.11;100.00
64095;BME280;50353;51.420;5.682;2024-03-08T05:48:30;101241.91;;;1.28;100.00
64095;BME280;50353;51.420;5.682;2024-03-08T05:50:57;101237.72;;;1.16;100.00
64095;BME280;50353;51.420;5.682;2024-03-08T05:53:23;101237.94;;;0.99;100.00
64095;BME280;50353;51.420;5.682;2024-03-08T05:55:48;101233.63;;;1.00;100.00
64095;BME280;50353;51.420;5.682;2024-03-08T05:58:15;101235.13;;;1.16;100.00
64095;BME280;50353;51.420;5.682;2024-03-08T06:00:40;101228.13;;;1.18;100.00
64095;BME280;50353;51.420;5.682;2024-03-08T06:03:05;101233.81;;;0.86;100.00
64095;BME280;50353;51.420;5.682;2024-03-08T06:05:31;101217.00;;;1.09;100.00
64095;BME280;50353;51.420;5.682;2024-03-08T06:07:56;101230.06;;;1.06;100.00
64095;BME280;50353;51.420;5.682;2024-03-08T06:10:22;101219.59;;;1.09;100.00
64095;BME280;50353;51.420;5.682;2024-03-08T06:12:47;101215.06;;;1.23;100.00
64095;BME280;50353;51.420;5.682;2024-03-08T06:15:13;101211.78;;;1.09;100.00
64095;BME280;50353;51.420;5.682;2024-03-08T06:17:41;101205.53;;;1.21;100.00
64095;BME280;50353;51.420;5.682;2024-03-08T06:20:07;101208.06;;;1.25;100.00
64095;BME280;50353;51.420;5.682;2024-03-08T06:22:41;101202.84;;;1.25;100.00
64095;BME280;50353;51.420;5.682;2024-03-08T06:25:08;101195.94;;;1.26;100.00
64095;BME280;50353;51.420;5.682;2024-03-08T06:27:34;101199.53;;;1.15;100.00
64095;BME280;50353;51.420;5.682;2024-03-08T06:30:00;101198.63;;;1.18;100.00
64095;BME280;50353;51.420;5.682;2024-03-08T06:32:25;101198.69;;;1.15;100.00
64095;BME280;50353;51.420;5.682;2024-03-08T06:34:51;101198.47;;;1.29;100.00
64095;BME280;50353;51.420;5.682;2024-03-08T06:37:16;101190.81;;;1.71;100.00
64095;BME280;50353;51.420;5.682;2024-03-08T06:39:48;101192.22;;;1.89;100.00
64095;BME280;50353;51.420;5.682;2024-03-08T06:42:13;101193.41;;;1.73;100.00
64095;BME280;50353;51.420;5.682;2024-03-08T06:44:39;101188.41;;;2.09;100.00
64095;BME280;50353;51.420;5.682;2024-03-08T06:47:14;101178.41;;;1.85;100.00
64095;BME280;50353;51.420;5.682;2024-03-08T06:49:41;101191.00;;;1.60;100.00
64095;BME280;50353;51.420;5.682;2024-03-08T06:52:06;101186.63;;;2.11;100.00
64095;BME280;50353;51.420;5.682;2024-03-08T06:54:34;101182.25;;;2.11;100.00
64095;BME280;50353;51.420;5.682;2024-03-08T06:57:02;101181.84;;;2.31;100.00
64095;BME280;50353;51.420;5.682;2024-03-08T06:59:28;101188.69;;;1.93;100.00
64095;BME280;50353;51.420;5.682;2024-03-08T07:01:54;101187.03;;;2.33;100.00
64095;BME280;50353;51.420;5.682;2024-03-08T07:04:19;101186.13;;;2.35;100.00
64095;BME280;50353;51.420;5.682;2024-03-08T07:06:47;101182.78;;;2.69;100.00
64095;BME280;50353;51.420;5.682;2024-03-08T07:09:15;101176.25;;;2.91;100.00
64095;BME280;50353;51.420;5.682;2024-03-08T07:11:42;101180.78;;;2.82;100.00
64095;BME280;50353;51.420;5.682;2024-03-08T07:14:08;101187.84;;;3.16;100.00
64095;BME280;50353;51.420;5.682;2024-03-08T07:16:34;101184.44;;;3.13;100.00
64095;BME280;50353;51.420;5.682;2024-03-08T07:19:01;101177.22;;;2.85;100.00
64095;BME280;50353;51.420;5.682;2024-03-08T07:21:27;101186.13;;;3.15;100.00
64095;BME280;50353;51.420;5.682;2024-03-08T07:23:52;101169.44;;;3.21;100.00
64095;BME280;50353;51.420;5.682;2024-03-08T07:26:27;101179.75;;;2.90;100.00
64095;BME280;50353;51.420;5.682;2024-03-08T07:28:53;101165.25;;;3.14;100.00
64095;BME280;50353;51.420;5.682;2024-03-08T07:31:22;101175.63;;;3.17;100.00
64095;BME280;50353;51.420;5.682;2024-03-08T07:34:03;101162.44;;;3.21;100.00
64095;BME280;50353;51.420;5.682;2024-03-08T07:36:28;101174.84;;;3.49;100.00
64095;BME280;50353;51.420;5.682;2024-03-08T07:38:54;101165.19;;;3.86;100.00
64095;BME280;50353;51.420;5.682;2024-03-08T07:41:19;101161.94;;;4.39;100.00
64095;BME280;50353;51.420;5.682;2024-03-08T07:43:45;101158.66;;;4.32;100.00
64095;BME280;50353;51.420;5.682;2024-03-08T07:46:11;101158.81;;;3.63;100.00
64095;BME280;50353;51.420;5.682;2024-03-08T07:48:38;101159.38;;;3.40;100.00
64095;BME280;50353;51.420;5.682;2024-03-08T07:51:05;101150.38;;;3.52;100.00
64095;BME280;50353;51.420;5.682;2024-03-08T07:53:31;101153.94;;;3.82;100.00
64095;BME280;50353;51.420;5.682;2024-03-08T07:55:56;101158.19;;;4.18;100.00
64095;BME280;50353;51.420;5.682;2024-03-08T07:58:22;101154.88;;;3.80;100.00
64095;BME280;50353;51.420;5.682;2024-03-08T08:00:49;101145.06;;;4.19;100.00
64095;BME280;50353;51.420;5.682;2024-03-08T08:03:14;101145.59;;;4.01;100.00
64095;BME280;50353;51.420;5.682;2024-03-08T08:05:41;101151.84;;;3.95;100.00
64095;BME280;50353;51.420;5.682;2024-03-08T08:08:09;101138.38;;;3.78;100.00
64095;BME280;50353;51.420;5.682;2024-03-08T08:10:36;101134.53;;;4.51;100.00
64095;BME280;50353;51.420;5.682;2024-03-08T08:13:02;101116.91;;;4.57;100.00
64095;BME280;50353;51.420;5.682;2024-03-08T08:15:29;101119.41;;;4.32;100.00
64095;BME280;50353;51.420;5.682;2024-03-08T08:17:55;101118.22;;;4.43;100.00
64095;BME280;50353;51.420;5.682;2024-03-08T08:20:20;101110.59;;;4.35;100.00
64095;BME280;50353;51.420;5.682;2024-03-08T08:22:47;101117.22;;;4.17;100.00
64095;BME280;50353;51.420;5.682;2024-03-08T08:25:13;101112.88;;;4.47;100.00
64095;BME280;50353;51.420;5.682;2024-03-08T08:27:41;101106.00;;;4.71;100.00
64095;BME280;50353;51.420;5.682;2024-03-08T08:30:08;101101.38;;;4.80;100.00
64095;BME280;50353;51.420;5.682;2024-03-08T08:32:36;101092.50;;;4.84;100.00
64095;BME280;50353;51.420;5.682;2024-03-08T08:35:03;101083.28;;;4.99;100.00
64095;BME280;50353;51.420;5.682;2024-03-08T08:37:32;101092.69;;;5.06;100.00
64095;BME280;50353;51.420;5.682;2024-03-08T08:40:01;101090.66;;;5.39;100.00
64095;BME280;50353;51.420;5.682;2024-03-08T08:42:31;101099.81;;;5.53;100.00
64095;BME280;50353;51.420;5.682;2024-03-08T08:44:56;101096.75;;;5.65;100.00
64095;BME280;50353;51.420;5.682;2024-03-08T08:47:23;101084.78;;;5.33;100.00
64095;BME280;50353;51.420;5.682;2024-03-08T08:49:48;101084.09;;;5.53;100.00
64095;BME280;50353;51.420;5.682;2024-03-08T08:52:16;101081.22;;;6.09;100.00
64095;BME280;50353;51.420;5.682;2024-03-08T08:54:42;101073.97;;;6.16;100.00
64095;BME280;50353;51.420;5.682;2024-03-08T08:57:08;101072.19;;;6.17;100.00
64095;BME280;50353;51.420;5.682;2024-03-08T08:59:34;101067.97;;;6.13;100.00
64095;BME280;50353;51.420;5.682;2024-03-08T09:02:01;101065.66;;;6.27;100.00
64095;BME280;50353;51.420;5.682;2024-03-08T09:04:29;101064.50;;;5.87;100.00
64095;BME280;50353;51.420;5.682;2024-03-08T09:06:54;101059.84;;;5.95;100.00
64095;BME280;50353;51.420;5.682;2024-03-08T09:09:20;101052.16;;;6.36;100.00
64095;BME280;50353;51.420;5.682;2024-03-08T09:11:47;101058.31;;;6.35;100.00
64095;BME280;50353;51.420;5.682;2024-03-08T09:14:12;101047.47;;;6.89;100.00
64095;BME280;50353;51.420;5.682;2024-03-08T09:16:39;101051.53;;;6.96;100.00
64095;BME280;50353;51.420;5.682;2024-03-08T09:19:05;101045.50;;;7.15;100.00
64095;BME280;50353;51.420;5.682;2024-03-08T09:21:32;101036.63;;;7.17;100.00
64095;BME280;50353;51.420;5.682;2024-03-08T09:23:58;101035.38;;;6.85;100.00
64095;BME280;50353;51.420;5.682;2024-03-08T09:26:23;101028.25;;;7.07;100.00
64095;BME280;50353;51.420;5.682;2024-03-08T09:28:49;101028.78;;;7.57;100.00
64095;BME280;50353;51.420;5.682;2024-03-08T09:31:14;101025.91;;;7.01;100.00
64095;BME280;50353;51.420;5.682;2024-03-08T09:33:42;101028.16;;;6.90;100.00
64095;BME280;50353;51.420;5.682;2024-03-08T09:36:07;101027.94;;;7.75;100.00
64095;BME280;50353;51.420;5.682;2024-03-08T09:38:33;101013.59;;;7.43;100.00
64095;BME280;50353;51.420;5.682;2024-03-08T09:41:01;101003.16;;;7.60;100.00
64095;BME280;50353;51.420;5.682;2024-03-08T09:43:30;101004.88;;;7.01;100.00
64095;BME280;50353;51.420;5.682;2024-03-08T09:45:58;100997.59;;;7.28;100.00
64095;BME280;50353;51.420;5.682;2024-03-08T09:48:25;100983.13;;;7.58;100.00
64095;BME280;50353;51.420;5.682;2024-03-08T09:50:51;100988.25;;;7.61;100.00
64095;BME280;50353;51.420;5.682;2024-03-08T09:53:16;100984.69;;;7.62;100.00
64095;BME280;50353;51.420;5.682;2024-03-08T09:55:42;100962.94;;;7.58;100.00
64095;BME280;50353;51.420;5.682;2024-03-08T09:58:12;100960.91;;;8.21;100.00
64095;BME280;50353;51.420;5.682;2024-03-08T10:00:54;100949.94;;;7.93;100.00
64095;BME280;50353;51.420;5.682;2024-03-08T10:03:22;100955.44;;;8.43;100.00
64095;BME280;50353;51.420;5.682;2024-03-08T10:05:47;100948.66;;;8.74;100.00
64095;BME280;50353;51.420;5.682;2024-03-08T10:08:14;100947.84;;;8.37;100.00
64095;BME280;50353;51.420;5.682;2024-03-08T10:10:39;100956.16;;;8.46;100.00
64095;BME280;50353;51.420;5.682;2024-03-08T10:13:06;100948.59;;;8.21;100.00
64095;BME280;50353;51.420;5.682;2024-03-08T10:15:32;100929.50;;;7.79;100.00
64095;BME280;50353;51.420;5.682;2024-03-08T10:18:00;100933.88;;;8.71;100.00
64095;BME280;50353;51.420;5.682;2024-03-08T10:20:28;100926.41;;;9.30;100.00
64095;BME280;50353;51.420;5.682;2024-03-08T10:23:02;100930.25;;;9.07;100.00
64095;BME280;50353;51.420;5.682;2024-03-08T10:25:29;100926.59;;;8.59;100.00
64095;BME280;50353;51.420;5.682;2024-03-08T10:27:55;100922.78;;;9.16;100.00
64095;BME280;50353;51.420;5.682;2024-03-08T10:30:21;100918.78;;;9.08;100.00
64095;BME280;50353;51.420;5.682;2024-03-08T10:32:47;100914.16;;;9.77;100.00
64095;BME280;50353;51.420;5.682;2024-03-08T10:35:13;100912.63;;;9.41;100.00
64095;BME280;50353;51.420;5.682;2024-03-08T10:37:49;100923.53;;;8.84;100.00
64095;BME280;50353;51.420;5.682;2024-03-08T10:40:24;100904.28;;;9.65;100.00
64095;BME280;50353;51.420;5.682;2024-03-08T10:42:53;100895.81;;;9.10;100.00
64095;BME280;50353;51.420;5.682;2024-03-08T10:47:49;100896.56;;;8.79;100.00
64095;BME280;50353;51.420;5.682;2024-03-08T10:50:20;100881.28;;;9.19;100.00
64095;BME280;50353;51.420;5.682;2024-03-08T10:52:50;100885.19;;;9.28;100.00
64095;BME280;50353;51.420;5.682;2024-03-08T10:55:17;100879.94;;;9.76;100.00
64095;BME280;50353;51.420;5.682;2024-03-08T10:57:43;100893.50;;;9.20;100.00
64095;BME280;50353;51.420;5.682;2024-03-08T11:00:10;100862.50;;;9.41;100.00
64095;BME280;50353;51.420;5.682;2024-03-08T11:02:36;100861.88;;;9.84;100.00
64095;BME280;50353;51.420;5.682;2024-03-08T11:05:03;100868.28;;;9.32;100.00
64095;BME280;50353;51.420;5.682;2024-03-08T11:07:33;100855.66;;;9.69;100.00
64095;BME280;50353;51.420;5.682;2024-03-08T11:10:02;100854.34;;;10.08;100.00
64095;BME280;50353;51.420;5.682;2024-03-08T11:12:36;100862.56;;;9.88;100.00
64095;BME280;50353;51.420;5.682;2024-03-08T11:15:10;100841.72;;;9.51;100.00
64095;BME280;50353;51.420;5.682;2024-03-08T11:20:09;100847.16;;;9.32;100.00
64095;BME280;50353;51.420;5.682;2024-03-08T11:23:00;100829.56;;;9.64;100.00
64095;BME280;50353;51.420;5.682;2024-03-08T11:25:33;100828.53;;;10.28;100.00
64095;BME280;50353;51.420;5.682;2024-03-08T11:28:10;100829.03;;;9.74;100.00
64095;BME280;50353;51.420;5.682;2024-03-08T11:30:42;100823.19;;;9.99;100.00
64095;BME280;50353;51.420;5.682;2024-03-08T11:33:11;100824.69;;;10.03;100.00
64095;BME280;50353;51.420;5.682;2024-03-08T11:35:38;100814.72;;;9.78;100.00
64095;BME280;50353;51.420;5.682;2024-03-08T11:38:04;100812.22;;;9.91;100.00
64095;BME280;50353;51.420;5.682;2024-03-08T11:40:29;100805.50;;;10.15;100.00
64095;BME280;50353;51.420;5.682;2024-03-08T11:42:55;100816.59;;;9.76;100.00
64095;BME280;50353;51.420;5.682;2024-03-08T11:45:20;100816.38;;;10.25;100.00
64095;BME280;50353;51.420;5.682;2024-03-08T11:47:48;100805.44;;;10.17;100.00
64095;BME280;50353;51.420;5.682;2024-03-08T11:50:14;100807.00;;;10.05;100.00
64095;BME280;50353;51.420;5.682;2024-03-08T11:52:40;100801.88;;;10.32;100.00
64095;BME280;50353;51.420;5.682;2024-03-08T11:55:06;100812.56;;;10.15;100.00
64095;BME280;50353;51.420;5.682;2024-03-08T11:57:32;100791.22;;;9.73;100.00
64095;BME280;50353;51.420;5.682;2024-03-08T11:59:59;100789.38;;;10.36;100.00
64095;BME280;50353;51.420;5.682;2024-03-08T12:02:35;100775.41;;;10.04;100.00
64095;BME280;50353;51.420;5.682;2024-03-08T12:05:06;100778.34;;;10.13;100.00
64095;BME280;50353;51.420;5.682;2024-03-08T12:07:32;100794.44;;;9.78;100.00
64095;BME280;50353;51.420;5.682;2024-03-08T12:10:19;100781.22;;;10.54;100.00
64095;BME280;50353;51.420;5.682;2024-03-08T12:12:48;100785.34;;;10.29;100.00
64095;BME280;50353;51.420;5.682;2024-03-08T12:15:15;100773.25;;;10.55;100.00
64095;BME280;50353;51.420;5.682;2024-03-08T12:17:43;100769.28;;;10.32;100.00
64095;BME280;50353;51.420;5.682;2024-03-08T12:20:25;100772.31;;;10.26;100.00
64095;BME280;50353;51.420;5.682;2024-03-08T12:22:52;100764.75;;;10.20;100.00
64095;BME280;50353;51.420;5.682;2024-03-08T12:25:19;100759.94;;;10.57;100.00
64095;BME280;50353;51.420;5.682;2024-03-08T12:27:45;100750.19;;;10.72;98.09
64095;BME280;50353;51.420;5.682;2024-03-08T12:30:18;100751.56;;;10.34;100.00
64095;BME280;50353;51.420;5.682;2024-03-08T12:33:02;100745.19;;;10.67;100.00
64095;BME280;50353;51.420;5.682;2024-03-08T12:35:29;100757.00;;;10.17;100.00
64095;BME280;50353;51.420;5.682;2024-03-08T12:37:59;100733.38;;;10.44;100.00
64095;BME280;50353;51.420;5.682;2024-03-08T12:40:31;100730.91;;;10.84;100.00
64095;BME280;50353;51.420;5.682;2024-03-08T12:43:01;100721.03;;;10.44;100.00
64095;BME280;50353;51.420;5.682;2024-03-08T12:45:26;100717.72;;;10.55;100.00
64095;BME280;50353;51.420;5.682;2024-03-08T12:47:53;100712.31;;;10.86;100.00
64095;BME280;50353;51.420;5.682;2024-03-08T12:50:20;100712.34;;;10.57;100.00
64095;BME280;50353;51.420;5.682;2024-03-08T12:52:46;100716.59;;;10.59;100.00
64095;BME280;50353;51.420;5.682;2024-03-08T12:55:11;100710.84;;;10.53;100.00